Time;durP1;ratioP1;P1;durP2;ratioP2;P2;SDS_P1;SDS_P2;PMS_P1;PMS_P2;Temp;Humidity;BMP_temperature;BMP_pressure;BME280_temperature;BME280_humidity;BME280_pressure;Samples;Min_cycle;Max_cycle;Signal;HPM_P1;HPM_P2
2021/12/16 00:29:19;;;;;;;34.50;18.38;;;;;;;6.94;68.28;100866.63;5089483;29;20081;-67
2021/12/16 00:31:50;;;;;;;31.42;17.27;;;;;;;7.05;67.76;100862.53;5100742;29;20051;-68
2021/12/16 00:34:40;;;;;;;30.63;17.63;;;;;;;7.24;67.07;100867.72;5088425;29;20092;-68
2021/12/16 00:37:31;;;;;;;36.47;18.58;;;;;;;7.14;67.02;100865.63;5083744;29;20093;-68
2021/12/16 00:40:21;;;;;;;29.80;16.80;;;;;;;7.32;65.92;100869.13;5097304;29;20066;-68
2021/12/16 00:43:19;;;;;;;33.97;18.58;;;;;;;7.34;65.46;100854.09;5102016;29;20494;-68
2021/12/16 00:55:23;;;;;;;33.95;18.67;;;;;;;7.65;65.36;100885.91;5096993;29;20264;-68
2021/12/16 00:58:17;;;;;;;37.28;20.50;;;;;;;7.32;66.57;100891.13;5087938;29;20066;-68
2021/12/16 01:01:22;;;;;;;38.13;20.15;;;;;;;7.14;67.97;100886.75;5101993;29;20051;-68
2021/12/16 01:08:00;;;;;;;;;;;;;;;7.17;67.55;100899.78;5097635;29;20642;-68
2021/12/16 01:40:01;;;;;;;28.48;16.27;;;;;;;7.56;66.63;100910.16;5098561;29;20055;-68
2021/12/16 01:55:40;;;;;;;32.30;16.98;;;;;;;7.34;67.39;100905.06;5107987;29;20541;-69
2021/12/16 01:58:32;;;;;;;29.88;16.70;;;;;;;7.30;67.21;100903.53;5097324;29;20142;-70
2021/12/16 02:01:32;;;;;;;32.08;17.55;;;;;;;7.38;66.61;100900.50;5099784;29;20065;-69
2021/12/16 02:04:30;;;;;;;31.08;17.52;;;;;;;7.33;66.62;100899.88;5100665;29;20050;-70
2021/12/16 02:07:45;;;;;;;32.92;18.73;;;;;;;7.33;67.22;100907.81;5099361;29;20472;-70
2021/12/16 02:10:40;;;;;;;32.20;18.58;;;;;;;7.17;67.37;100886.59;5088069;29;20763;-70
2021/12/16 02:27:13;;;;;;;30.73;17.88;;;;;;;7.23;67.60;100897.69;5082938;29;20534;-70
2021/12/16 02:29:47;;;;;;;35.08;18.42;;;;;;;7.43;66.13;100882.66;5093514;29;20131;-68
2021/12/16 02:35:35;;;;;;;33.25;17.88;;;;;;;7.11;67.89;100887.75;5100465;29;20542;-69
2021/12/16 02:38:29;;;;;;;33.75;18.30;;;;;;;7.06;67.28;100882.69;5098473;29;20441;-70
2021/12/16 02:41:20;;;;;;;30.58;18.67;;;;;;;7.13;67.59;100887.69;5101233;29;20062;-70
2021/12/16 02:50:22;;;;;;;31.77;18.83;;;;;;;7.27;67.72;100877.28;5104415;29;20051;-70
2021/12/16 02:53:11;;;;;;;37.50;21.50;;;;;;;7.18;67.79;100886.50;5104468;29;20291;-70
2021/12/16 02:56:03;;;;;;;38.75;20.38;;;;;;;7.39;66.68;100886.41;5089141;29;20059;-70
2021/12/16 02:58:56;;;;;;;39.55;20.85;;;;;;;7.42;67.61;100889.72;5086682;29;20423;-68
2021/12/16 03:01:53;;;;;;;39.55;20.80;;;;;;;7.07;67.64;100884.41;5084577;29;20051;-70
2021/12/16 03:04:47;;;;;;;41.47;21.02;;;;;;;7.29;67.55;100891.28;5097998;29;20059;-69
2021/12/16 03:07:38;;;;;;;42.58;21.58;;;;;;;7.17;68.12;100878.69;5102968;29;20129;-69
2021/12/16 03:13:32;;;;;;;36.08;19.55;;;;;;;7.13;68.51;100885.91;5094749;29;20047;-70
2021/12/16 03:16:38;;;;;;;39.53;20.35;;;;;;;6.54;70.41;100877.28;5103118;29;20044;-70
2021/12/16 03:32:42;;;;;;;34.80;19.83;;;;;;;6.83;69.60;100867.16;5100186;29;20519;-69
2021/12/16 03:35:40;;;;;;;38.60;20.45;;;;;;;6.92;69.46;100885.16;5103339;29;20054;-70
2021/12/16 03:38:34;;;;;;;41.63;21.02;;;;;;;6.77;68.92;100873.56;5101054;29;20051;-69
2021/12/16 03:41:26;;;;;;;29.30;15.90;;;;;;;6.89;69.54;100881.78;5097321;29;20058;-70
2021/12/16 03:44:26;;;;;;;41.58;20.30;;;;;;;6.74;69.20;100894.78;5103219;29;20663;-70
2021/12/16 03:47:20;;;;;;;36.22;19.83;;;;;;;6.77;69.34;100886.75;5102707;29;20048;-69
2021/12/16 03:50:18;;;;;;;39.25;20.08;;;;;;;6.95;69.22;100895.53;5103116;29;20051;-68
2021/12/16 03:53:13;;;;;;;41.38;20.92;;;;;;;7.01;68.40;100892.59;5102620;29;20058;-70
2021/12/16 03:56:05;;;;;;;36.53;19.92;;;;;;;6.86;68.68;100893.38;5086834;29;20059;-69
2021/12/16 03:59:10;;;;;;;34.80;17.80;;;;;;;6.90;68.83;100892.28;5090192;29;20059;-70
2021/12/16 04:02:29;;;;;;;35.08;18.85;;;;;;;6.72;68.34;100858.88;5097110;29;20063;-68
2021/12/16 04:05:21;;;;;;;35.40;18.20;;;;;;;6.66;69.19;100888.19;5102497;29;20431;-69
2021/12/16 04:08:15;;;;;;;32.88;19.05;;;;;;;6.81;67.52;100885.66;5098470;29;20055;-69
2021/12/16 04:11:23;;;;;;;35.72;18.92;;;;;;;7.11;67.31;100877.19;5095906;29;20126;-70
2021/12/16 04:14:38;;;;;;;40.47;19.05;;;;;;;7.01;67.25;100895.25;5098870;29;20115;-69
2021/12/16 04:17:34;;;;;;;36.20;18.95;;;;;;;6.97;67.66;100906.88;5088890;29;20047;-69
2021/12/16 04:20:26;;;;;;;35.97;19.60;;;;;;;6.92;68.16;100902.75;5101392;29;20056;-69
2021/12/16 04:23:19;;;;;;;40.25;19.77;;;;;;;6.77;67.65;100905.19;5099442;29;20494;-69
2021/12/16 04:26:10;;;;;;;40.35;21.20;;;;;;;6.94;67.87;100893.00;5093896;29;20557;-70
2021/12/16 04:29:03;;;;;;;41.35;20.77;;;;;;;7.27;66.63;100907.16;5083231;29;20164;-70
2021/12/16 04:31:56;;;;;;;38.97;21.40;;;;;;;7.10;68.09;100906.28;5083391;29;20059;-70
2021/12/16 04:34:47;;;;;;;43.50;22.20;;;;;;;7.08;67.75;100901.06;5095223;29;20291;-68
2021/12/16 04:37:38;;;;;;;41.05;21.52;;;;;;;7.29;66.53;100907.94;5096141;29;20044;-69
2021/12/16 04:40:29;;;;;;;41.33;22.05;;;;;;;6.93;68.51;100894.78;5089545;29;20063;-66
2021/12/16 04:43:33;;;;;;;45.58;22.42;;;;;;;7.06;68.22;100914.34;5115856;29;20090;-67
2021/12/16 04:46:29;;;;;;;47.42;22.83;;;;;;;6.88;68.58;100915.22;5101889;29;20126;-72
2021/12/16 04:49:22;;;;;;;42.60;21.85;;;;;;;6.88;68.19;100919.66;5106199;29;20059;-67
2021/12/16 04:52:17;;;;;;;41.63;21.10;;;;;;;6.89;67.94;100910.81;5099114;29;20103;-71
2021/12/16 04:55:09;;;;;;;39.33;21.17;;;;;;;7.00;68.45;100919.94;5083243;29;20536;-73
2021/12/16 04:58:00;;;;;;;42.15;21.30;;;;;;;7.13;67.21;100909.63;5102714;29;20059;-73
2021/12/16 05:00:51;;;;;;;39.40;21.58;;;;;;;6.86;68.46;100927.66;5102223;29;20134;-70
2021/12/16 05:03:49;;;;;;;42.10;19.42;;;;;;;6.71;68.61;100913.41;5070402;29;20056;-69
2021/12/16 05:06:39;;;;;;;40.33;19.65;;;;;;;6.76;68.68;100913.19;5112649;29;20059;-67
2021/12/16 05:12:35;;;;;;;48.10;21.63;;;;;;;6.95;69.17;100929.81;5101272;29;20047;-67
2021/12/16 05:15:31;;;;;;;39.22;21.02;;;;;;;6.97;68.59;100938.53;5091691;29;20058;-68
2021/12/16 05:18:31;;;;;;;41.05;21.02;;;;;;;6.98;68.68;100934.94;5105071;29;20156;-68
2021/12/16 05:24:15;;;;;;;40.72;21.65;;;;;;;7.02;68.17;100936.53;5098850;29;20050;-70
2021/12/16 05:24:45;;;;;;;39.63;20.83;;;;;;;6.97;68.28;100937.69;5093643;29;20146;-69
2021/12/16 05:27:40;;;;;;;43.05;22.10;;;;;;;6.99;67.77;100941.97;5083346;29;20051;-69
2021/12/16 05:30:32;;;;;;;42.28;22.98;;;;;;;7.01;67.97;100936.59;5101261;29;20071;-68
2021/12/16 05:33:23;;;;;;;42.13;21.90;;;;;;;6.95;68.24;100937.72;5099072;29;20050;-70
2021/12/16 05:36:14;;;;;;;45.22;23.33;;;;;;;7.01;68.18;100934.81;5088458;29;20483;-67
2021/12/16 05:39:06;;;;;;;41.13;21.33;;;;;;;7.13;67.62;100964.19;5088350;29;20056;-66
2021/12/16 05:42:05;;;;;;;40.75;20.52;;;;;;;6.99;68.44;100970.97;5088058;29;20055;-66
2021/12/16 05:44:57;;;;;;;39.65;20.55;;;;;;;6.96;68.31;100968.47;5133651;23;20542;-71
2021/12/16 05:47:47;;;;;;;41.50;20.88;;;;;;;6.91;68.45;100959.91;5133541;28;20060;-70
2021/12/16 05:50:41;;;;;;;38.05;19.85;;;;;;;7.05;68.33;100967.16;5141872;28;20065;-70
2021/12/16 05:53:33;;;;;;;40.50;19.85;;;;;;;6.97;68.77;100975.44;5141386;28;20073;-71
2021/12/16 05:56:27;;;;;;;43.35;22.10;;;;;;;7.05;67.85;100967.16;5132850;28;20055;-71
2021/12/16 05:59:18;;;;;;;51.15;24.52;;;;;;;7.05;67.33;100975.97;5115545;29;20058;-71
2021/12/16 06:02:10;;;;;;;61.13;27.83;;;;;;;7.10;68.37;100985.44;5120756;28;20590;-72
2021/12/16 06:05:03;;;;;;;52.78;25.10;;;;;;;7.02;68.40;100978.75;5117622;28;20122;-75
2021/12/16 06:07:55;;;;;;;54.13;26.45;;;;;;;7.01;67.74;100973.53;5123812;28;20704;-77
2021/12/16 06:11:15;;;;;;;55.20;27.33;;;;;;;6.81;68.80;100945.47;5127900;28;20048;-72
2021/12/16 06:14:14;;;;;;;57.95;26.77;;;;;;;7.02;69.23;100978.75;5123408;28;20065;-75
2021/12/16 06:26:31;;;;;;;56.13;26.13;;;;;;;6.14;70.94;100972.25;5116096;28;20113;-73
2021/12/16 06:29:22;;;;;;;56.25;24.80;;;;;;;5.82;70.91;100940.22;5107052;28;20063;-74
2021/12/16 06:32:12;;;;;;;53.65;24.88;;;;;;;6.20;70.94;100972.81;5129982;28;20050;-73
2021/12/16 06:35:04;;;;;;;55.90;24.45;;;;;;;5.98;71.50;100966.78;5125751;28;20516;-74
2021/12/16 06:37:54;;;;;;;53.80;23.95;;;;;;;5.84;71.60;100964.72;5123624;28;20039;-75
2021/12/16 06:40:54;;;;;;;49.35;25.20;;;;;;;6.02;71.83;100979.72;5124102;29;20528;-74
2021/12/16 06:44:22;;;;;;;52.00;24.63;;;;;;;5.86;72.23;100978.66;5123839;28;20050;-74
2021/12/16 06:47:20;;;;;;;51.55;23.65;;;;;;;5.98;70.71;100985.22;5124050;28;20043;-73
2021/12/16 06:50:13;;;;;;;56.05;24.30;;;;;;;5.88;70.61;100961.03;5125508;29;20521;-74
2021/12/16 06:53:06;;;;;;;50.40;24.17;;;;;;;6.05;70.33;100979.59;5124455;29;20050;-73
2021/12/16 06:56:06;;;;;;;50.00;22.85;;;;;;;5.57;72.83;100986.00;5123542;28;20061;-75
2021/12/16 06:59:07;;;;;;;52.17;23.33;;;;;;;6.05;71.51;100984.88;5125415;29;20052;-74
2021/12/16 07:04:56;;;;;;;50.00;22.88;;;;;;;5.51;72.72;100969.63;5125183;28;20445;-73
2021/12/16 07:07:47;;;;;;;45.30;21.92;;;;;;;6.06;70.91;100991.88;5124401;28;20114;-73
2021/12/16 07:10:38;;;;;;;50.08;23.25;;;;;;;5.67;72.41;100993.53;5123500;28;20445;-73
2021/12/16 07:13:37;;;;;;;50.53;22.60;;;;;;;5.96;71.13;100994.94;5124672;28;20047;-73
2021/12/16 07:16:33;;;;;;;50.28;23.95;;;;;;;5.51;72.91;100995.94;5124592;29;20054;-73
2021/12/16 07:19:23;;;;;;;46.88;22.23;;;;;;;5.64;73.12;101007.66;5124720;29;20046;-74
2021/12/16 07:22:13;;;;;;;48.40;22.77;;;;;;;5.80;72.72;101010.53;5123600;29;20061;-73
2021/12/16 07:25:06;;;;;;;42.45;21.77;;;;;;;6.07;70.50;101013.78;5124239;29;20121;-74
2021/12/16 07:27:59;;;;;;;45.95;22.10;;;;;;;5.94;71.20;100983.63;5123320;28;20054;-73
2021/12/16 07:30:49;;;;;;;48.83;24.17;;;;;;;6.05;70.90;101005.94;5124590;29;20162;-74
2021/12/16 07:33:39;;;;;;;47.72;22.15;;;;;;;6.27;70.21;101020.84;5124384;28;20081;-73
2021/12/16 07:36:30;;;;;;;48.50;23.20;;;;;;;6.55;69.68;101029.22;5123747;29;20161;-73
2021/12/16 07:39:29;;;;;;;51.10;23.63;;;;;;;6.32;70.21;101018.84;5120983;28;20055;-74
2021/12/16 07:42:27;;;;;;;52.03;23.08;;;;;;;6.49;69.75;101016.34;5120293;29;20074;-72
2021/12/16 07:45:18;;;;;;;50.15;23.83;;;;;;;6.18;70.18;101026.50;5123905;28;20043;-72
2021/12/16 07:48:11;;;;;;;49.15;23.10;;;;;;;6.20;70.61;101027.28;5123107;28;20166;-72
2021/12/16 07:51:04;;;;;;;47.88;22.52;;;;;;;6.61;70.31;101041.28;5119580;29;20527;-72
2021/12/16 07:53:54;;;;;;;45.92;22.13;;;;;;;6.67;68.90;101042.78;5135793;28;20077;-70
2021/12/16 07:56:49;;;;;;;46.88;21.83;;;;;;;6.99;68.04;101047.47;5124291;28;20047;-70
2021/12/16 07:59:40;;;;;;;46.67;21.85;;;;;;;7.09;67.50;101047.03;5123981;29;20690;-70
2021/12/16 08:02:30;;;;;;;40.50;20.55;;;;;;;6.98;67.96;101052.78;5123701;29;20043;-70
2021/12/16 08:05:24;;;;;;;51.65;22.63;;;;;;;6.96;68.32;101063.44;5123172;28;20528;-70
2021/12/16 08:08:15;;;;;;;;;;;;;;;7.06;68.24;101059.44;5123949;29;20055;-71
2021/12/16 08:11:07;;;;;;;46.65;21.30;;;;;;;7.20;67.43;101063.22;5122155;29;20060;-70
2021/12/16 08:13:56;;;;;;;46.38;21.80;;;;;;;7.01;68.60;101050.00;5118644;28;20090;-70
2021/12/16 08:16:47;;;;;;;53.08;23.60;;;;;;;6.98;68.69;101060.69;5123067;28;20054;-70
2021/12/16 08:19:37;;;;;;;47.70;24.08;;;;;;;7.33;67.41;101072.25;5123556;28;20063;-70
2021/12/16 08:22:28;;;;;;;46.47;23.75;;;;;;;7.25;68.18;101069.13;5123002;29;20106;-70
2021/12/16 08:25:20;;;;;;;50.30;23.27;;;;;;;7.17;68.07;101058.06;5123445;28;20062;-70
2021/12/16 08:28:10;;;;;;;46.15;22.20;;;;;;;7.20;68.87;101052.66;5123091;29;20098;-70
2021/12/16 08:31:00;;;;;;;49.03;22.88;;;;;;;7.32;67.60;101069.69;5118039;28;20097;-70
2021/12/16 08:33:55;;;;;;;44.30;22.30;;;;;;;7.32;66.98;101075.84;5123577;29;20057;-70
2021/12/16 08:36:47;;;;;;;49.55;23.45;;;;;;;7.25;68.03;101079.66;5117815;29;20087;-70
2021/12/16 08:39:38;;;;;;;46.58;21.80;;;;;;;7.18;68.10;101073.81;5123103;29;20071;-70
2021/12/16 08:42:28;;;;;;;54.42;23.98;;;;;;;7.22;67.33;101062.22;5122965;28;20050;-70
2021/12/16 08:45:31;;;;;;;45.28;22.15;;;;;;;7.23;67.86;101081.53;5122245;28;20677;-70
2021/12/16 08:48:22;;;;;;;47.90;23.27;;;;;;;7.20;68.16;101076.41;5122497;28;20414;-71
2021/12/16 08:51:15;;;;;;;46.30;23.20;;;;;;;7.25;67.94;101085.81;5122860;29;20066;-72
2021/12/16 08:54:06;;;;;;;49.70;22.60;;;;;;;7.25;68.10;101095.50;5123107;28;20410;-71
2021/12/16 08:56:57;;;;;;;44.85;23.40;;;;;;;7.25;67.91;101087.59;5122505;29;20610;-72
2021/12/16 08:59:49;;;;;;;42.55;21.52;;;;;;;7.16;68.48;101106.50;5121717;28;20047;-72
2021/12/16 09:02:39;;;;;;;47.17;23.75;;;;;;;7.19;67.43;101093.19;5122757;29;20553;-72
2021/12/16 09:05:30;;;;;;;42.92;21.65;;;;;;;7.29;67.68;101086.53;5117459;29;20691;-72
2021/12/16 09:08:20;;;;;;;46.92;22.05;;;;;;;7.42;67.48;101087.69;5123664;28;20050;-72
2021/12/16 09:11:17;;;;;;;45.35;21.45;;;;;;;7.62;67.68;101093.78;5118562;29;20055;-72
2021/12/16 09:14:08;;;;;;;43.45;22.17;;;;;;;7.62;66.64;101086.72;5124669;28;20517;-71
2021/12/16 09:16:59;;;;;;;41.17;21.00;;;;;;;7.61;66.40;101077.06;5124705;29;20118;-74
2021/12/16 09:19:52;;;;;;;43.72;21.60;;;;;;;7.74;66.65;101082.63;5121836;29;20417;-72
2021/12/16 09:22:42;;;;;;;42.65;20.90;;;;;;;7.43;66.58;101097.28;5122418;29;20059;-72
2021/12/16 09:25:33;;;;;;;39.80;20.90;;;;;;;7.77;65.69;101124.72;5122159;28;20098;-71
2021/12/16 09:28:25;;;;;;;52.63;23.60;;;;;;;7.63;66.89;101116.63;5122790;29;20050;-71
2021/12/16 09:31:18;;;;;;;43.15;21.75;;;;;;;7.68;66.07;101120.75;5122122;29;20058;-71
2021/12/16 09:34:09;;;;;;;42.72;21.67;;;;;;;7.69;66.19;101116.34;5121358;29;20084;-73
2021/12/16 09:36:59;;;;;;;40.30;21.17;;;;;;;7.69;66.31;101114.53;5121071;29;20074;-74
2021/12/16 09:39:49;;;;;;;42.50;20.50;;;;;;;7.49;67.88;101120.75;5121997;29;20049;-72
2021/12/16 09:42:40;;;;;;;45.00;21.90;;;;;;;7.62;67.18;101118.41;5121918;29;20186;-71
2021/12/16 09:45:30;;;;;;;39.38;20.23;;;;;;;7.65;66.55;101128.81;5121964;29;20054;-71
2021/12/16 09:48:21;;;;;;;43.90;21.20;;;;;;;8.04;65.64;101124.31;5122301;28;20541;-71
2021/12/16 09:51:21;;;;;;;40.83;20.77;;;;;;;7.95;65.50;101123.00;5122013;29;20053;-72
2021/12/16 09:54:18;;;;;;;41.17;20.73;;;;;;;7.48;66.35;101120.81;5121822;28;20054;-72
2021/12/16 09:57:09;;;;;;;39.05;20.02;;;;;;;7.58;66.32;101135.28;5121277;28;20058;-72
2021/12/16 10:00:01;;;;;;;43.30;20.52;;;;;;;7.58;66.86;101123.88;5120943;28;20548;-70
2021/12/16 10:02:55;;;;;;;40.50;18.52;;;;;;;7.70;66.57;101144.44;5121649;29;20086;-70
2021/12/16 10:05:48;;;;;;;45.42;20.98;;;;;;;7.64;65.97;101097.19;5120210;28;20425;-71
2021/12/16 10:08:40;;;;;;;39.88;20.02;;;;;;;7.95;66.04;101133.56;5122756;28;20055;-71
2021/12/16 10:11:31;;;;;;;34.33;18.73;;;;;;;8.05;65.28;101131.31;5121421;29;20063;-73
2021/12/16 10:17:26;;;;;;;35.72;18.73;;;;;;;7.85;66.89;101132.31;5121292;29;20054;-70
2021/12/16 10:20:21;;;;;;;39.13;19.25;;;;;;;7.77;66.55;101130.00;5121607;29;20171;-71
2021/12/16 10:23:23;;;;;;;40.67;19.60;;;;;;;7.91;65.13;101106.44;5121195;29;20050;-70
2021/12/16 10:26:21;;;;;;;38.88;19.67;;;;;;;8.02;65.59;101113.84;5120453;29;20098;-70
2021/12/16 10:29:11;;;;;;;42.55;21.33;;;;;;;7.79;65.74;101114.97;5121700;29;20155;-71
2021/12/16 10:32:02;;;;;;;37.95;19.13;;;;;;;7.70;66.20;101118.88;5120399;29;20178;-70
2021/12/16 10:35:03;;;;;;;38.47;21.02;;;;;;;8.02;65.91;101119.13;5121451;28;20051;-71
2021/12/16 10:38:03;;;;;;;38.60;19.70;;;;;;;8.05;65.93;101118.13;5121041;28;20058;-71
2021/12/16 10:40:56;;;;;;;49.28;19.73;;;;;;;7.93;66.34;101130.13;5107422;29;20051;-71
2021/12/16 10:43:56;;;;;;;39.10;20.40;;;;;;;8.03;65.60;101127.91;5121503;29;20066;-71
2021/12/16 10:47:04;;;;;;;42.25;21.38;;;;;;;7.95;66.03;101115.94;5117526;29;20074;-70
2021/12/16 10:49:54;;;;;;;36.55;19.70;;;;;;;8.04;65.70;101121.66;5121581;29;20170;-71
2021/12/16 10:52:45;;;;;;;41.90;20.52;;;;;;;8.16;65.21;101132.50;5120889;28;20055;-72
2021/12/16 10:55:35;;;;;;;37.80;20.23;;;;;;;7.96;66.02;101124.69;5116205;29;20046;-71
2021/12/16 10:58:51;;;;;;;38.63;20.73;;;;;;;7.91;65.87;101131.97;5120754;29;20114;-71
2021/12/16 11:02:29;;;;;;;49.28;20.75;;;;;;;8.11;66.04;101126.59;5121659;28;20051;-70
2021/12/16 11:05:23;;;;;;;38.50;19.45;;;;;;;8.28;64.86;101125.75;5059122;29;20423;-71
2021/12/16 11:08:13;;;;;;;45.13;20.40;;;;;;;8.16;65.71;101129.84;5118109;29;20058;-70
2021/12/16 11:11:11;;;;;;;39.58;19.33;;;;;;;8.18;64.95;101117.44;5124025;29;20154;-71
2021/12/16 11:14:05;;;;;;;;;;;;;;;8.14;65.33;101121.13;5124178;29;20050;-71
2021/12/16 11:16:58;;;;;;;42.33;19.02;;;;;;;7.99;65.49;101106.91;5124492;28;20476;-71
2021/12/16 11:19:54;;;;;;;37.25;20.15;;;;;;;8.23;65.30;101111.91;5124757;28;20058;-70
2021/12/16 11:22:46;;;;;;;36.63;19.60;;;;;;;8.18;65.43;101116.59;5124699;28;20058;-70
2021/12/16 11:25:46;;;;;;;39.10;19.83;;;;;;;8.08;65.71;101126.75;5123437;28;20413;-70
2021/12/16 11:28:38;;;;;;;35.03;18.77;;;;;;;8.26;64.79;101119.69;5120693;29;20899;-70
2021/12/16 11:31:31;;;;;;;38.95;19.45;;;;;;;8.22;64.83;101120.78;5124576;29;20086;-72
2021/12/16 11:34:21;;;;;;;37.95;19.95;;;;;;;8.35;64.27;101128.94;5123390;28;20074;-70
2021/12/16 11:37:22;;;;;;;38.47;19.88;;;;;;;8.70;64.17;101127.16;5123233;29;20106;-70
2021/12/16 11:40:14;;;;;;;44.80;20.00;;;;;;;7.87;65.40;101102.22;5124055;29;20066;-70
2021/12/16 11:43:05;;;;;;;39.22;20.50;;;;;;;8.26;64.41;101119.69;5123973;29;20051;-71
2021/12/16 11:45:55;;;;;;;41.85;20.38;;;;;;;8.34;65.22;101099.00;5122619;29;20134;-71
2021/12/16 11:48:47;;;;;;;37.78;20.23;;;;;;;8.72;63.39;101116.50;5123862;29;20130;-70
2021/12/16 11:51:45;;;;;;;40.45;20.60;;;;;;;8.43;64.98;101114.41;5123870;29;20051;-70
2021/12/16 11:54:54;;;;;;;43.08;19.50;;;;;;;8.67;64.17;101124.66;5124163;29;20205;-71
2021/12/16 11:57:52;;;;;;;41.10;20.65;;;;;;;8.56;65.38;101119.09;5123641;29;20090;-71
2021/12/16 12:00:42;;;;;;;41.33;20.20;;;;;;;8.37;65.65;101112.06;5121391;29;20066;-71
2021/12/16 12:03:34;;;;;;;49.65;22.05;;;;;;;8.37;66.26;101109.41;5124625;28;20113;-72
2021/12/16 12:06:28;;;;;;;41.92;20.67;;;;;;;8.78;63.82;101109.09;5124008;29;20070;-70
2021/12/16 12:09:18;;;;;;;42.70;21.30;;;;;;;8.94;61.84;101109.16;5124815;29;20099;-70
2021/12/16 12:12:09;;;;;;;39.80;19.88;;;;;;;8.85;62.17;101107.84;5120273;29;20126;-70
2021/12/16 12:15:06;;;;;;;36.72;20.10;;;;;;;8.81;62.12;101097.53;5123116;28;20054;-69
2021/12/16 12:17:57;;;;;;;40.53;20.83;;;;;;;8.70;64.15;101111.28;5123961;29;20472;-71
2021/12/16 12:20:48;;;;;;;35.63;19.40;;;;;;;8.67;63.66;101100.88;5122635;28;20074;-70
2021/12/16 12:23:43;;;;;;;33.03;18.38;;;;;;;8.91;63.63;101093.44;5130309;28;20422;-72
2021/12/16 12:26:37;;;;;;;37.20;19.58;;;;;;;9.24;61.38;101069.59;5124836;28;20181;-71
2021/12/16 12:29:33;;;;;;;37.13;19.25;;;;;;;9.20;62.14;101083.91;5117825;28;20176;-71
2021/12/16 12:32:36;;;;;;;37.45;19.50;;;;;;;8.85;62.69;101064.66;5129569;28;20070;-71
2021/12/16 12:35:28;;;;;;;42.77;19.83;;;;;;;9.06;62.07;101084.66;5123190;28;20047;-70
2021/12/16 12:38:21;;;;;;;35.88;19.75;;;;;;;9.03;62.39;101070.75;5122860;29;20394;-70
2021/12/16 12:41:12;;;;;;;38.85;19.65;;;;;;;9.48;61.44;101082.41;5123092;29;20043;-70
2021/12/16 12:44:05;;;;;;;45.75;19.55;;;;;;;9.15;61.51;101065.66;5122998;29;20044;-71
2021/12/16 12:46:58;;;;;;;40.65;20.30;;;;;;;9.00;63.01;101065.63;5123230;28;20051;-71
2021/12/16 12:49:49;;;;;;;37.10;19.27;;;;;;;9.01;62.91;101056.78;5123281;28;20193;-71
2021/12/16 12:52:40;;;;;;;36.13;18.95;;;;;;;9.13;62.80;101077.25;5122636;28;20047;-71
2021/12/16 12:55:33;;;;;;;37.63;18.38;;;;;;;8.91;63.75;101085.50;5123158;28;20525;-71
2021/12/16 12:58:27;;;;;;;38.75;19.30;;;;;;;9.00;63.35;101071.75;5123056;29;20133;-71
2021/12/16 13:01:31;;;;;;;34.90;18.15;;;;;;;9.05;62.86;101079.47;5116819;28;20110;-72
2021/12/16 13:04:27;;;;;;;33.13;18.33;;;;;;;9.21;62.72;101090.94;5124636;28;20051;-72
2021/12/16 13:07:17;;;;;;;38.50;18.70;;;;;;;9.11;62.72;101095.88;5124279;28;20687;-70
2021/12/16 13:10:15;;;;;;;34.28;19.40;;;;;;;9.17;62.88;101097.31;5119075;28;20541;-72
2021/12/16 13:13:52;;;;;;;38.05;18.83;;;;;;;9.04;62.61;101091.84;5124356;28;20531;-70
2021/12/16 13:17:14;;;;;;;33.92;18.23;;;;;;;9.13;63.40;101077.25;5124339;28;20443;-71
2021/12/16 13:23:30;;;;;;;36.78;17.85;;;;;;;9.25;62.66;101087.19;5119297;28;20172;-69
2021/12/16 13:29:28;;;;;;;34.33;18.05;;;;;;;9.32;62.58;101093.84;5118074;28;20142;-70
2021/12/16 13:32:28;;;;;;;32.63;17.83;;;;;;;9.17;62.82;101084.06;5117388;28;20500;-70
2021/12/16 13:35:32;;;;;;;34.53;17.65;;;;;;;9.19;62.50;101074.28;5118187;28;20043;-68
2021/12/16 13:38:22;;;;;;;33.40;17.57;;;;;;;9.01;62.40;101077.94;5115008;28;20052;-67
2021/12/16 13:41:16;;;;;;;36.13;19.00;;;;;;;9.04;64.14;101067.16;5115319;28;20782;-69
2021/12/16 13:44:14;;;;;;;34.38;18.55;;;;;;;9.01;62.89;101070.84;5113014;28;20152;-69
2021/12/16 14:03:52;;;;;;;39.10;19.02;;;;;;;9.03;63.52;101090.13;5121827;28;20446;-68
2021/12/16 14:10:17;;;;;;;39.85;18.90;;;;;;;9.14;62.71;101100.16;5105533;29;20074;-68
2021/12/16 14:23:03;;;;;;;33.30;18.38;;;;;;;9.16;63.73;101108.84;5121061;28;20074;-68
2021/12/16 14:26:18;;;;;;;35.70;18.67;;;;;;;9.39;62.29;101100.50;5120928;28;20099;-68
2021/12/16 14:42:16;;;;;;;37.15;19.35;;;;;;;8.99;64.27;101128.28;5120938;29;20558;-69
2021/12/16 14:45:14;;;;;;;33.58;18.05;;;;;;;9.03;64.53;101140.41;5122865;28;20045;-68
2021/12/16 14:51:02;;;;;;;37.72;19.08;;;;;;;9.06;63.82;101123.50;5125109;29;20050;-68
2021/12/16 14:53:54;;;;;;;29.95;16.30;;;;;;;9.09;63.60;101116.25;5125320;29;20106;-69
2021/12/16 14:56:45;;;;;;;32.75;17.88;;;;;;;9.04;63.40;101120.09;5124712;29;20058;-69
2021/12/16 14:59:35;;;;;;;32.55;16.23;;;;;;;8.61;64.34;101095.88;5125316;29;20716;-68
2021/12/16 15:02:30;;;;;;;30.65;16.30;;;;;;;8.63;65.12;101131.06;5124967;29;20501;-68
2021/12/16 15:05:53;;;;;;;30.33;15.90;;;;;;;8.41;65.49;101118.06;5124493;28;20133;-68
2021/12/16 15:08:53;;;;;;;27.95;15.23;;;;;;;8.22;65.70;101132.19;5124522;29;20117;-68
2021/12/16 15:11:57;;;;;;;30.13;15.48;;;;;;;8.44;65.33;101125.84;5119092;29;20058;-68
2021/12/16 15:45:45;;;;;;;36.10;16.90;;;;;;;7.40;66.43;101144.09;5122397;28;20509;-67
2021/12/16 15:48:36;;;;;;;34.20;16.75;;;;;;;7.38;66.48;101149.41;5123863;29;20498;-69
2021/12/16 15:51:26;;;;;;;34.47;16.10;;;;;;;7.23;67.47;101147.50;5120403;29;20050;-68
2021/12/16 15:54:18;;;;;;;28.05;15.02;;;;;;;7.06;67.64;101135.94;5123974;29;20513;-68
2021/12/16 15:57:09;;;;;;;31.30;15.82;;;;;;;7.15;67.42;101163.69;5119326;28;20193;-68
2021/12/16 16:00:12;;;;;;;34.72;16.35;;;;;;;7.14;67.84;101161.97;5122988;28;20138;-68
2021/12/16 16:03:02;;;;;;;36.08;16.40;;;;;;;7.03;68.08;101132.56;5120947;29;20616;-68
2021/12/16 16:05:55;;;;;;;37.03;17.13;;;;;;;7.28;68.15;101151.66;5123252;29;20053;-68
2021/12/16 16:08:52;;;;;;;33.35;17.27;;;;;;;7.27;67.84;101146.44;5123791;29;20098;-69
2021/12/16 16:11:50;;;;;;;38.00;16.90;;;;;;;7.31;67.61;101161.19;5123226;29;20130;-68
2021/12/16 16:14:44;;;;;;;34.72;17.13;;;;;;;7.25;68.20;101164.09;5122655;29;20058;-68
2021/12/16 16:17:53;;;;;;;33.63;17.13;;;;;;;7.29;68.19;101168.34;5123131;29;20708;-68
2021/12/16 16:20:47;;;;;;;35.63;16.85;;;;;;;7.29;68.64;101174.47;5130599;28;20166;-71
2021/12/16 16:23:43;;;;;;;34.80;17.23;;;;;;;7.34;68.26;101173.41;5138154;28;20058;-69
2021/12/16 16:26:34;;;;;;;32.55;17.77;;;;;;;7.33;68.16;101150.59;5117901;29;20054;-69
2021/12/16 16:29:27;;;;;;;34.20;17.23;;;;;;;7.45;68.38;101174.63;5123548;28;20580;-68
2021/12/16 16:32:18;;;;;;;34.72;17.08;;;;;;;7.37;68.63;101175.91;5123147;29;20162;-69
2021/12/16 16:35:14;;;;;;;35.17;17.55;;;;;;;7.32;68.33;101151.50;5123505;28;20491;-68
2021/12/16 16:38:14;;;;;;;31.23;16.63;;;;;;;7.94;66.54;101159.09;5122493;29;20058;-68
2021/12/16 16:41:13;;;;;;;33.60;16.90;;;;;;;7.75;66.64;101163.56;5123120;29;20525;-68
2021/12/16 16:44:12;;;;;;;37.28;17.92;;;;;;;7.40;67.94;101166.06;5123257;29;20049;-68
2021/12/16 16:47:17;;;;;;;35.08;17.48;;;;;;;7.45;67.74;101156.16;5111949;28;20043;-70
2021/12/16 16:50:10;;;;;;;37.13;17.30;;;;;;;7.75;67.17;101155.66;5117347;28;20505;-68
2021/12/16 16:53:00;;;;;;;38.05;17.80;;;;;;;7.52;67.57;101151.44;5123199;28;20054;-68
2021/12/16 16:55:50;;;;;;;35.80;17.70;;;;;;;7.70;67.15;101153.22;5121496;28;20063;-68
2021/12/16 16:58:41;;;;;;;36.45;17.77;;;;;;;7.96;65.31;101130.84;5131807;28;20046;-68
2021/12/16 17:01:32;;;;;;;44.47;19.38;;;;;;;7.56;65.76;101116.06;5123482;28;20051;-68
2021/12/16 17:04:23;;;;;;;40.83;20.20;;;;;;;7.65;66.22;101133.22;5121757;28;20071;-67
2021/12/16 17:07:14;;;;;;;44.25;20.63;;;;;;;7.43;65.89;101139.53;5119474;28;20719;-67